Time;durP1;ratioP1;P1;durP2;ratioP2;P2;SDS_P1;SDS_P2;PMS_P1;PMS_P2;Temp;Humidity;BMP_temperature;BMP_pressure;BME280_temperature;BME280_humidity;BME280_pressure;Samples;Min_cycle;Max_cycle;Signal;HPM_P1;HPM_P2
2024/03/14 00:02:19;;;;;;;10.35;5.20;;;;;;;9.96;89.11;99697.72;5068252;28;20023;-78
2024/03/14 00:04:45;;;;;;;9.02;5.30;;;;;;;9.85;89.96;99696.63;5087151;28;20417;-78
2024/03/14 00:07:10;;;;;;;8.93;6.05;;;;;;;10.04;89.41;99697.41;5069212;28;20492;-79
2024/03/14 00:09:36;;;;;;;10.50;5.55;;;;;;;10.01;88.89;99689.88;5087223;28;20482;-78
2024/03/14 00:12:01;;;;;;;9.27;5.00;;;;;;;10.14;89.45;99706.75;5086688;28;20020;-79
2024/03/14 00:14:27;;;;;;;10.35;6.03;;;;;;;10.10;89.62;99711.69;5087207;28;20591;-78
2024/03/14 00:16:52;;;;;;;9.48;5.30;;;;;;;9.96;89.27;99670.28;5087829;28;20111;-79
2024/03/14 00:19:21;;;;;;;9.52;5.10;;;;;;;10.11;89.97;99700.00;5087177;28;20037;-78
2024/03/14 00:21:47;;;;;;;9.85;5.18;;;;;;;9.89;90.00;99672.19;5068731;28;20044;-78
2024/03/14 00:24:13;;;;;;;9.63;5.28;;;;;;;10.19;89.45;99680.22;5069262;28;20550;-78
2024/03/14 00:26:38;;;;;;;10.25;5.53;;;;;;;10.31;88.62;99693.63;5068943;28;20035;-78
2024/03/14 00:29:05;;;;;;;10.48;6.05;;;;;;;10.28;89.50;99689.53;5084462;28;21337;-79
2024/03/14 00:31:32;;;;;;;11.20;6.75;;;;;;;10.16;89.85;99675.34;5086835;28;20024;-79
2024/03/14 00:33:58;;;;;;;10.00;5.53;;;;;;;10.11;91.57;99680.53;5086527;28;20031;-79
2024/03/14 00:36:23;;;;;;;11.38;6.95;;;;;;;10.01;91.29;99647.25;5069037;28;20031;-78
2024/03/14 00:38:49;;;;;;;10.65;6.63;;;;;;;10.08;91.40;99662.34;5086966;28;20498;-78
2024/03/14 00:41:15;;;;;;;12.15;6.85;;;;;;;9.94;93.66;99659.84;5086328;28;20016;-79
2024/03/14 00:43:40;;;;;;;14.93;8.30;;;;;;;10.06;94.17;99675.88;5086870;28;20028;-78
2024/03/14 00:46:06;;;;;;;17.42;9.20;;;;;;;10.17;93.98;99671.63;5086612;28;20028;-78
2024/03/14 00:48:32;;;;;;;16.38;8.77;;;;;;;10.16;95.89;99676.16;5068627;28;20069;-78
2024/03/14 00:50:58;;;;;;;12.75;6.82;;;;;;;10.24;96.86;99669.72;5068743;28;20468;-78
2024/03/14 00:53:25;;;;;;;16.88;8.95;;;;;;;10.23;97.03;99668.06;5086789;28;20028;-78
2024/03/14 00:55:51;;;;;;;11.68;6.78;;;;;;;10.23;98.83;99676.06;5086909;28;20028;-78
2024/03/14 00:58:16;;;;;;;10.52;6.13;;;;;;;10.12;100.00;99663.53;5068156;28;20047;-78
2024/03/14 01:00:41;;;;;;;11.23;6.20;;;;;;;10.35;100.00;99684.94;5068620;28;20032;-78
2024/03/14 01:03:08;;;;;;;9.63;5.53;;;;;;;9.96;100.00;99671.09;5086581;28;20572;-78
2024/03/14 01:05:35;;;;;;;10.25;6.45;;;;;;;9.99;100.00;99654.66;5086775;28;20028;-78
2024/03/14 01:08:01;;;;;;;12.05;5.82;;;;;;;10.09;100.00;99664.75;5068366;28;20586;-78
2024/03/14 01:10:27;;;;;;;9.38;6.07;;;;;;;10.01;100.00;99675.72;5086663;28;20020;-79
2024/03/14 01:12:52;;;;;;;9.57;5.63;;;;;;;9.74;100.00;99656.63;5088025;28;20119;-78
2024/03/14 01:15:18;;;;;;;9.95;6.07;;;;;;;9.74;100.00;99653.94;5091014;28;20172;-78
2024/03/14 01:17:43;;;;;;;10.70;6.07;;;;;;;10.11;100.00;99661.88;5090695;28;20024;-79
2024/03/14 01:20:16;;;;;;;10.45;6.05;;;;;;;9.78;100.00;99645.28;5072099;28;20032;-79
2024/03/14 01:22:42;;;;;;;10.60;6.10;;;;;;;9.95;100.00;99636.69;5090568;28;20118;-78
2024/03/14 01:25:08;;;;;;;10.93;6.18;;;;;;;9.91;100.00;99649.66;5090758;28;20032;-78
2024/03/14 01:27:33;;;;;;;10.45;6.57;;;;;;;9.65;100.00;99630.28;5090563;28;20711;-78
2024/03/14 01:29:59;;;;;;;10.32;6.00;;;;;;;9.93;100.00;99649.41;5090236;28;20613;-78
2024/03/14 01:32:25;;;;;;;9.20;5.82;;;;;;;9.81;100.00;99646.72;5089758;28;20028;-78
2024/03/14 01:34:50;;;;;;;11.35;6.43;;;;;;;9.88;100.00;99650.09;5090752;28;20085;-78
2024/03/14 01:37:16;;;;;;;10.00;6.30;;;;;;;9.83;100.00;99639.31;5072179;28;20036;-78
2024/03/14 01:39:41;;;;;;;10.05;5.82;;;;;;;10.13;100.00;99654.47;5072106;28;20020;-78
2024/03/14 01:42:11;;;;;;;9.85;5.93;;;;;;;9.74;100.00;99633.44;5089936;28;20028;-78
2024/03/14 01:45:00;;;;;;;10.02;6.22;;;;;;;9.89;100.00;99648.22;5090129;28;20545;-78
2024/03/14 01:47:26;;;;;;;13.02;7.00;;;;;;;9.84;100.00;99657.69;5089989;28;20032;-78
2024/03/14 01:49:52;;;;;;;10.85;6.65;;;;;;;9.87;100.00;99645.81;5089998;28;20081;-78
2024/03/14 01:52:18;;;;;;;9.27;5.60;;;;;;;9.94;100.00;99651.84;5089373;28;20036;-79
2024/03/14 01:54:44;;;;;;;11.15;5.80;;;;;;;9.95;100.00;99632.19;5090078;28;20028;-79
2024/03/14 01:57:10;;;;;;;10.40;5.97;;;;;;;9.90;100.00;99629.38;5071619;28;20111;-79
2024/03/14 01:59:36;;;;;;;9.57;5.53;;;;;;;9.91;100.00;99636.34;5071292;28;20036;-78
2024/03/14 02:02:02;;;;;;;11.20;5.75;;;;;;;9.71;100.00;99639.25;5089592;28;20043;-79
2024/03/14 02:04:41;;;;;;;10.75;5.88;;;;;;;9.85;100.00;99653.22;5071394;28;20028;-78
2024/03/14 02:07:13;;;;;;;11.18;6.10;;;;;;;9.71;100.00;99649.09;5089832;28;20024;-79
2024/03/14 02:09:40;;;;;;;10.35;5.90;;;;;;;10.04;100.00;99651.31;5089450;28;20031;-78
2024/03/14 02:12:07;;;;;;;9.75;5.55;;;;;;;10.06;100.00;99655.38;5089154;28;20637;-78
2024/03/14 02:14:33;;;;;;;9.80;5.63;;;;;;;9.92;100.00;99627.28;5089391;28;20028;-79
2024/03/14 02:16:58;;;;;;;10.27;5.95;;;;;;;9.93;100.00;99644.91;5089692;28;20032;-78
2024/03/14 02:19:24;;;;;;;9.05;5.75;;;;;;;9.86;100.00;99622.88;5089300;28;20065;-78
2024/03/14 02:21:49;;;;;;;11.80;6.72;;;;;;;9.97;100.00;99637.25;5089377;28;20077;-78
2024/03/14 02:24:17;;;;;;;10.38;6.50;;;;;;;10.23;100.00;99644.09;5068929;28;20130;-78
2024/03/14 02:26:43;;;;;;;11.40;6.43;;;;;;;10.31;100.00;99654.47;5071428;28;20544;-79
2024/03/14 02:29:09;;;;;;;10.40;6.43;;;;;;;10.29;100.00;99653.03;5088945;28;20052;-78
2024/03/14 02:31:34;;;;;;;11.07;6.75;;;;;;;9.81;100.00;99620.09;5088972;28;20035;-79
2024/03/14 02:34:00;;;;;;;11.18;6.90;;;;;;;10.12;100.00;99642.22;5089059;28;20060;-78
2024/03/14 02:36:25;;;;;;;12.63;7.47;;;;;;;10.14;100.00;99650.78;5089568;28;20028;-79
2024/03/14 02:38:52;;;;;;;11.75;6.97;;;;;;;10.29;100.00;99648.50;5088985;28;20028;-78
2024/03/14 02:41:18;;;;;;;10.85;6.80;;;;;;;9.86;100.00;99622.88;5088710;28;20020;-78
2024/03/14 02:43:44;;;;;;;11.35;7.30;;;;;;;10.16;100.00;99648.72;5088437;28;20039;-78
2024/03/14 02:46:09;;;;;;;12.52;7.28;;;;;;;10.22;100.00;99642.47;5070784;28;20039;-78
2024/03/14 02:48:36;;;;;;;10.95;6.60;;;;;;;10.28;100.00;99652.22;5088671;28;20024;-79
2024/03/14 02:51:03;;;;;;;12.43;7.72;;;;;;;10.20;100.00;99629.38;5088681;28;20044;-79
2024/03/14 02:53:29;;;;;;;11.40;6.40;;;;;;;10.08;100.00;99641.03;5070676;28;20043;-78
2024/03/14 02:55:55;;;;;;;12.45;7.47;;;;;;;10.11;100.00;99629.91;5070863;28;20024;-79
2024/03/14 02:58:21;;;;;;;10.48;6.18;;;;;;;10.03;100.00;99633.69;5088707;28;20054;-78
2024/03/14 03:00:48;;;;;;;11.52;6.60;;;;;;;10.03;100.00;99655.84;5088761;28;20020;-78
2024/03/14 03:03:15;;;;;;;12.25;6.30;;;;;;;9.97;100.00;99651.41;5069955;28;20492;-78
2024/03/14 03:05:41;;;;;;;10.38;5.90;;;;;;;10.02;100.00;99648.88;5088498;28;20560;-77
2024/03/14 03:08:07;;;;;;;11.18;6.80;;;;;;;9.92;100.00;99635.28;5088627;28;20027;-78
2024/03/14 03:10:33;;;;;;;9.93;6.03;;;;;;;10.09;100.00;99643.44;5088911;28;20093;-78
2024/03/14 03:12:58;;;;;;;10.20;6.07;;;;;;;10.02;100.00;99648.88;5088192;28;20040;-76
2024/03/14 03:15:24;;;;;;;9.77;5.47;;;;;;;10.06;100.00;99650.06;5088622;28;20110;-78
2024/03/14 03:17:50;;;;;;;10.60;5.65;;;;;;;9.95;100.00;99648.16;5088581;28;20036;-78
2024/03/14 03:20:18;;;;;;;9.73;5.43;;;;;;;10.06;100.00;99628.75;5088037;28;20413;-79
2024/03/14 03:23:06;;;;;;;9.65;5.50;;;;;;;9.78;100.00;99634.63;5088461;28;20036;-79
2024/03/14 03:25:32;;;;;;;;;;;;;;;9.85;100.00;99654.03;5089303;28;20100;-78
2024/03/14 03:27:59;;;;;;;9.27;4.65;;;;;;;9.80;100.00;99642.41;5088129;28;19924;-78
2024/03/14 03:30:24;;;;;;;8.38;5.40;;;;;;;9.97;100.00;99654.09;5087767;28;20559;-79
2024/03/14 03:32:50;;;;;;;9.48;4.90;;;;;;;9.59;100.00;99625.84;5088087;28;20032;-79
2024/03/14 03:35:21;;;;;;;7.75;4.47;;;;;;;9.90;100.00;99661.34;5087139;28;20036;-78
2024/03/14 03:37:47;;;;;;;8.88;4.85;;;;;;;9.76;100.00;99662.53;5088017;28;20024;-79
2024/03/14 03:40:21;;;;;;;7.90;4.53;;;;;;;9.90;100.00;99649.88;5087655;28;20064;-78
2024/03/14 03:42:47;;;;;;;8.98;4.75;;;;;;;9.64;100.00;99642.00;5088135;28;20028;-78
2024/03/14 03:45:14;;;;;;;8.23;4.63;;;;;;;9.67;100.00;99662.03;5069330;28;20030;-79
2024/03/14 03:47:40;;;;;;;8.90;5.00;;;;;;;9.53;100.00;99656.03;5088236;28;20024;-78
2024/03/14 03:50:11;;;;;;;8.93;5.18;;;;;;;9.62;100.00;99645.88;5087749;28;20063;-78
2024/03/14 03:52:39;;;;;;;11.90;5.20;;;;;;;9.51;100.00;99660.75;5087643;28;20032;-78
2024/03/14 03:55:06;;;;;;;7.97;5.18;;;;;;;9.83;100.00;99673.94;5087145;28;20032;-78
2024/03/14 03:57:34;;;;;;;8.35;5.07;;;;;;;9.69;100.00;99659.16;5088141;28;20040;-78
2024/03/14 04:00:07;;;;;;;9.07;4.78;;;;;;;9.78;100.00;99682.56;5087522;28;20047;-78
2024/03/14 04:02:32;;;;;;;8.15;4.63;;;;;;;9.71;100.00;99657.88;5087324;28;20032;-78
2024/03/14 04:04:57;;;;;;;7.65;4.30;;;;;;;9.65;100.00;99666.75;5087276;28;20026;-79
2024/03/14 04:07:28;;;;;;;9.18;4.95;;;;;;;10.02;100.00;99677.38;5087671;28;20138;-78
2024/03/14 04:09:54;;;;;;;14.27;9.88;;;;;;;9.70;100.00;99655.44;5069255;28;20020;-78
2024/03/14 04:12:19;;;;;;;16.67;13.55;;;;;;;9.92;100.00;99669.91;5068966;28;20024;-78
2024/03/14 04:14:44;;;;;;;12.68;10.27;;;;;;;9.80;100.00;99675.16;5087236;28;20032;-78
2024/03/14 04:17:11;;;;;;;12.95;9.20;;;;;;;9.62;100.00;99670.69;5087456;28;20039;-78
2024/03/14 04:19:37;;;;;;;18.38;14.85;;;;;;;9.62;100.00;99665.38;5087198;28;20059;-78
2024/03/14 04:22:04;;;;;;;17.92;12.55;;;;;;;9.57;100.00;99657.22;5068928;28;20035;-78
2024/03/14 04:24:32;;;;;;;12.48;7.80;;;;;;;9.48;100.00;99669.22;5086929;28;20101;-78
2024/03/14 04:26:58;;;;;;;17.98;13.05;;;;;;;9.36;100.00;99684.28;5086765;28;20020;-78
2024/03/14 04:29:26;;;;;;;17.13;13.65;;;;;;;9.55;100.00;99688.56;5068669;28;20066;-78
2024/03/14 04:31:54;;;;;;;10.70;7.30;;;;;;;9.56;100.00;99666.25;5086566;28;20103;-78
2024/03/14 04:34:26;;;;;;;10.18;6.25;;;;;;;9.42;100.00;99670.09;5086637;28;20481;-77
2024/03/14 04:36:51;;;;;;;11.10;5.40;;;;;;;9.63;100.00;99693.59;5087054;28;20024;-78
2024/03/14 04:39:19;;;;;;;8.25;4.95;;;;;;;9.40;100.00;99696.13;5086260;28;20024;-78
2024/03/14 04:41:45;;;;;;;8.90;4.47;;;;;;;9.21;100.00;99698.75;5071712;28;20035;-78
2024/03/14 04:44:11;;;;;;;12.15;5.35;;;;;;;9.27;100.00;99682.91;5086226;28;20093;-78
2024/03/14 04:46:41;;;;;;;10.07;6.10;;;;;;;9.18;100.00;99685.88;5086484;28;20028;-78
2024/03/14 04:49:10;;;;;;;11.60;7.10;;;;;;;9.28;100.00;99697.88;5086510;28;20058;-78
2024/03/14 04:51:36;;;;;;;10.60;7.45;;;;;;;9.35;100.00;99690.63;5086469;28;20452;-78
2024/03/14 04:54:02;;;;;;;10.93;8.07;;;;;;;9.27;100.00;99694.38;5086686;28;20563;-78
2024/03/14 04:56:30;;;;;;;9.82;6.53;;;;;;;9.22;100.00;99692.38;5086758;28;20028;-78
2024/03/14 04:58:56;;;;;;;;;;;;;;;9.31;100.00;99710.72;5069338;28;20115;-79
2024/03/14 05:01:21;;;;;;;10.63;5.53;;;;;;;9.18;100.00;99691.19;5086129;28;20023;-78
2024/03/14 05:03:47;;;;;;;9.80;5.65;;;;;;;9.22;100.00;99663.09;5086959;28;20032;-78
2024/03/14 05:06:13;;;;;;;8.63;5.47;;;;;;;9.51;100.00;99711.34;5068672;28;20473;-78
2024/03/14 05:08:38;;;;;;;9.07;5.38;;;;;;;9.35;100.00;99693.28;5087049;28;20024;-78
2024/03/14 05:11:04;;;;;;;9.75;6.90;;;;;;;9.52;100.00;99698.84;5068704;28;20070;-78
2024/03/14 05:13:30;;;;;;;10.50;6.70;;;;;;;9.54;100.00;99694.94;5068197;28;20489;-78
2024/03/14 05:15:55;;;;;;;16.38;9.15;;;;;;;9.34;100.00;99699.66;5086245;28;20520;-78
2024/03/14 05:18:21;;;;;;;68.75;32.25;;;;;;;9.37;100.00;99707.19;5086714;28;20540;-78
2024/03/14 05:20:47;;;;;;;29.30;15.40;;;;;;;9.36;100.00;99719.69;5068258;28;20036;-77
2024/03/14 05:23:12;;;;;;;35.88;18.20;;;;;;;9.62;100.00;99725.75;5068098;28;20028;-77
2024/03/14 05:25:38;;;;;;;28.83;14.32;;;;;;;9.28;100.00;99687.22;5068293;28;20120;-78
2024/03/14 05:28:06;;;;;;;24.60;12.52;;;;;;;9.36;100.00;99722.34;5086474;28;20040;-78
2024/03/14 05:30:31;;;;;;;19.95;10.73;;;;;;;9.49;100.00;99710.75;5086480;28;20028;-76
2024/03/14 05:32:59;;;;;;;13.82;7.18;;;;;;;9.46;100.00;99729.84;5086227;28;20039;-78
2024/03/14 05:35:24;;;;;;;12.00;6.57;;;;;;;9.45;100.00;99713.03;5068372;28;20809;-77
2024/03/14 05:37:50;;;;;;;13.13;7.35;;;;;;;9.49;100.00;99709.94;5068383;28;20039;-78
2024/03/14 05:40:15;;;;;;;12.18;6.85;;;;;;;9.59;100.00;99724.38;5068566;28;20028;-78
2024/03/14 05:42:41;;;;;;;14.88;9.98;;;;;;;9.61;100.00;99734.81;5068177;28;20075;-78
2024/03/14 05:45:08;;;;;;;14.30;9.75;;;;;;;9.56;100.00;99735.47;5085951;28;20493;-77
2024/03/14 05:47:35;;;;;;;11.93;6.78;;;;;;;9.48;100.00;99733.09;5086639;28;20032;-78
2024/03/14 05:50:06;;;;;;;10.73;6.40;;;;;;;9.54;100.00;99737.53;5086641;28;20700;-78
2024/03/14 05:52:32;;;;;;;13.00;6.35;;;;;;;9.48;100.00;99717.13;5086836;28;20090;-77
2024/03/14 05:54:58;;;;;;;17.65;8.77;;;;;;;9.70;100.00;99743.31;5086381;28;20016;-78
2024/03/14 05:57:23;;;;;;;18.67;9.63;;;;;;;9.80;100.00;99739.09;5087069;28;20036;-77
2024/03/14 05:59:51;;;;;;;19.75;11.40;;;;;;;10.00;100.00;99740.72;5089526;28;20026;-78
2024/03/14 06:02:16;;;;;;;20.92;11.75;;;;;;;9.85;100.00;99741.91;5090173;28;20111;-77
2024/03/14 06:04:42;;;;;;;20.10;12.02;;;;;;;9.84;100.00;99748.25;5072061;28;20123;-77
2024/03/14 06:07:07;;;;;;;18.77;11.70;;;;;;;9.97;100.00;99742.00;5091282;28;20023;-78
2024/03/14 06:09:41;;;;;;;13.57;7.65;;;;;;;10.57;100.00;99748.44;5072704;28;20059;-78
2024/03/14 06:12:08;;;;;;;12.93;6.03;;;;;;;10.64;100.00;99746.47;5091202;28;20451;-79
2024/03/14 06:14:34;;;;;;;11.85;7.97;;;;;;;10.73;100.00;99758.47;5095348;28;20036;-79
2024/03/14 06:16:59;;;;;;;10.27;6.00;;;;;;;10.94;100.00;99759.78;5101002;28;20032;-78
2024/03/14 06:19:25;;;;;;;9.85;5.07;;;;;;;11.14;100.00;99764.81;5082849;28;20024;-78
2024/03/14 06:21:50;;;;;;;8.25;5.10;;;;;;;10.90;100.00;99725.81;5100445;28;20518;-78
2024/03/14 06:24:19;;;;;;;8.65;5.25;;;;;;;11.09;100.00;99747.88;5100382;28;20032;-79
2024/03/14 06:26:47;;;;;;;7.03;4.20;;;;;;;11.42;100.00;99774.84;5080375;28;20042;-78
2024/03/14 06:29:12;;;;;;;6.28;3.85;;;;;;;11.21;100.00;99765.50;5080302;28;20398;-78
2024/03/14 06:31:38;;;;;;;5.38;3.00;;;;;;;11.01;100.00;99768.53;5113472;28;20491;-78
2024/03/14 06:34:04;;;;;;;4.07;2.45;;;;;;;11.10;100.00;99765.53;5101166;28;20028;-78
2024/03/14 06:36:29;;;;;;;4.90;3.13;;;;;;;11.13;100.00;99787.19;5080988;28;20409;-78
2024/03/14 06:38:55;;;;;;;5.18;2.83;;;;;;;11.06;100.00;99776.63;5099291;28;20126;-78
2024/03/14 06:41:21;;;;;;;4.25;2.47;;;;;;;11.05;100.00;99775.03;5099040;28;20028;-78
2024/03/14 06:43:47;;;;;;;5.47;2.40;;;;;;;11.16;100.00;99784.09;5098510;28;20039;-79
2024/03/14 06:46:15;;;;;;;3.88;2.10;;;;;;;11.23;100.00;99775.97;5080526;28;20032;-78
2024/03/14 06:48:40;;;;;;;3.25;2.10;;;;;;;11.31;100.00;99794.31;5098199;28;20028;-79
2024/03/14 06:51:06;;;;;;;2.42;1.65;;;;;;;11.39;96.49;99785.16;5080198;28;20082;-79
2024/03/14 06:53:32;;;;;;;3.75;1.90;;;;;;;11.36;96.55;99790.94;5097029;28;20028;-79
2024/03/14 06:55:57;;;;;;;3.92;1.75;;;;;;;11.48;95.19;99799.78;5078144;28;20032;-78
2024/03/14 06:58:24;;;;;;;5.25;1.90;;;;;;;11.37;94.90;99784.59;5075985;28;20028;-78
2024/03/14 07:00:49;;;;;;;6.63;2.92;;;;;;;11.69;92.74;99800.25;5092135;28;20104;-78
2024/03/14 07:03:16;;;;;;;5.70;2.53;;;;;;;11.53;90.12;99794.56;5091515;28;20485;-78
2024/03/14 07:05:43;;;;;;;2.75;1.55;;;;;;;11.61;92.80;99814.78;5090892;28;20027;-78
2024/03/14 07:08:11;;;;;;;3.80;1.85;;;;;;;11.82;90.15;99811.53;5072249;28;20032;-79
2024/03/14 07:10:37;;;;;;;3.65;1.40;;;;;;;11.73;90.26;99799.56;5090310;28;20035;-78
2024/03/14 07:13:02;;;;;;;1.88;1.27;;;;;;;11.70;87.73;99793.88;5089567;28;20027;-78
2024/03/14 07:15:28;;;;;;;3.05;1.50;;;;;;;11.82;88.49;99811.53;5088643;28;20074;-78
2024/03/14 07:17:58;;;;;;;2.30;1.45;;;;;;;11.64;86.12;99766.22;5079105;28;20516;-78
2024/03/14 07:20:33;;;;;;;2.72;1.75;;;;;;;11.68;85.59;99793.31;5088430;28;20105;-78
2024/03/14 07:22:59;;;;;;;2.83;1.48;;;;;;;11.58;89.07;99784.00;5088444;28;20063;-78
2024/03/14 07:25:25;;;;;;;2.40;1.42;;;;;;;11.99;86.79;99798.31;5088258;28;20020;-78
2024/03/14 07:27:51;;;;;;;3.05;1.67;;;;;;;12.17;84.04;99809.91;5088372;28;20035;-78
2024/03/14 07:30:17;;;;;;;8.32;2.33;;;;;;;12.12;84.77;99788.41;5088123;28;20028;-78
2024/03/14 07:32:42;;;;;;;9.65;3.40;;;;;;;12.29;83.27;99799.97;5087872;28;20043;-78
2024/03/14 07:35:09;;;;;;;5.90;2.78;;;;;;;12.21;82.69;99809.19;5087693;28;20089;-78
2024/03/14 07:37:35;;;;;;;17.95;6.20;;;;;;;12.06;81.33;99796.31;5087715;28;20118;-78
2024/03/14 07:40:01;;;;;;;6.85;2.55;;;;;;;12.16;85.08;99811.75;5088157;28;20077;-78
2024/03/14 07:42:29;;;;;;;6.40;2.88;;;;;;;12.30;85.66;99806.13;5087353;28;20040;-79
2024/03/14 07:44:55;;;;;;;7.68;2.72;;;;;;;12.41;82.72;99811.47;5087494;28;20024;-78
2024/03/14 07:47:23;;;;;;;4.70;2.30;;;;;;;12.35;80.99;99803.59;5087699;28;20113;-78
2024/03/14 07:49:49;;;;;;;5.82;3.90;;;;;;;12.28;82.80;99798.38;5087973;28;20012;-78
2024/03/14 07:52:15;;;;;;;3.30;1.80;;;;;;;12.37;81.04;99812.97;5087430;28;20106;-78
2024/03/14 07:54:44;;;;;;;3.90;1.88;;;;;;;12.81;80.03;99813.31;5069295;28;20123;-78
2024/03/14 07:57:12;;;;;;;3.55;1.75;;;;;;;12.74;81.69;99806.47;5087558;28;20032;-78
2024/03/14 07:59:37;;;;;;;3.88;1.90;;;;;;;12.78;79.50;99800.38;5087706;28;20035;-78
2024/03/14 08:02:07;;;;;;;3.15;1.73;;;;;;;12.71;78.54;99807.75;5069369;28;20036;-78
2024/03/14 08:04:33;;;;;;;6.88;2.80;;;;;;;12.97;80.51;99808.22;5086568;28;20532;-78
2024/03/14 08:06:59;;;;;;;6.60;2.92;;;;;;;12.96;77.85;99826.16;5068981;28;20448;-78
2024/03/14 08:09:26;;;;;;;2.35;1.50;;;;;;;12.82;77.08;99814.13;5087150;28;20024;-78
2024/03/14 08:11:52;;;;;;;7.72;3.83;;;;;;;12.78;77.28;99795.03;5069058;28;20024;-79
2024/03/14 08:14:18;;;;;;;4.25;1.90;;;;;;;12.70;78.01;99787.41;5087168;28;20031;-78
2024/03/14 08:16:43;;;;;;;3.17;1.77;;;;;;;12.98;79.23;99799.94;5087246;28;20036;-78
2024/03/14 08:19:09;;;;;;;6.28;2.47;;;;;;;13.18;75.05;99812.88;5087275;28;20110;-78
2024/03/14 08:21:36;;;;;;;4.93;2.33;;;;;;;13.14;74.66;99798.34;5087003;28;20024;-78
2024/03/14 08:24:09;;;;;;;5.45;2.20;;;;;;;12.99;75.40;99820.28;5086636;28;20027;-78
2024/03/14 08:26:36;;;;;;;2.55;1.60;;;;;;;12.85;75.93;99811.78;5087124;28;20115;-78
2024/03/14 08:29:02;;;;;;;4.47;2.03;;;;;;;12.81;76.29;99775.00;5087201;28;20051;-78
2024/03/14 08:31:28;;;;;;;3.30;1.70;;;;;;;12.93;74.80;99823.13;5068693;28;20058;-78
2024/03/14 08:33:55;;;;;;;3.55;1.80;;;;;;;13.02;75.87;99813.66;5068611;28;20032;-78
2024/03/14 08:36:21;;;;;;;1.75;1.50;;;;;;;12.75;72.92;99803.56;5086476;28;20031;-78
2024/03/14 08:38:48;;;;;;;3.20;1.85;;;;;;;12.67;75.46;99787.88;5086823;28;20040;-78
2024/03/14 08:41:13;;;;;;;2.33;1.50;;;;;;;12.88;77.32;99817.69;5086645;28;20020;-79
2024/03/14 08:43:40;;;;;;;2.60;1.63;;;;;;;13.02;72.34;99802.97;5087155;28;20110;-77
2024/03/14 08:46:06;;;;;;;2.50;1.40;;;;;;;12.92;74.67;99792.06;5086483;28;20111;-77
2024/03/14 08:48:33;;;;;;;3.67;1.80;;;;;;;12.80;74.67;99826.91;5068964;28;20024;-78
2024/03/14 08:50:59;;;;;;;2.97;1.57;;;;;;;12.66;74.87;99811.13;5087092;28;20027;-78
2024/03/14 08:53:30;;;;;;;3.17;1.88;;;;;;;12.52;76.13;99793.75;5068325;28;20036;-78
2024/03/14 08:55:55;;;;;;;3.67;1.95;;;;;;;12.81;74.49;99817.81;5085927;28;20036;-79
2024/03/14 08:58:22;;;;;;;2.80;1.83;;;;;;;12.86;76.28;99789.28;5086523;28;20137;-78
2024/03/14 09:00:48;;;;;;;3.15;1.88;;;;;;;12.73;74.40;99811.00;5087282;28;20085;-78
2024/03/14 09:03:15;;;;;;;3.67;1.95;;;;;;;12.64;75.50;99821.25;5068038;28;20089;-78
2024/03/14 09:05:42;;;;;;;3.72;2.03;;;;;;;12.53;75.99;99806.09;5086313;28;20032;-78
2024/03/14 09:08:07;;;;;;;3.45;1.70;;;;;;;12.73;76.40;99810.19;5068111;28;20537;-79
2024/03/14 09:10:33;;;;;;;4.82;1.92;;;;;;;12.60;77.52;99789.88;5086837;28;20062;-78
2024/03/14 09:12:59;;;;;;;7.50;3.40;;;;;;;13.18;74.98;99812.88;5086294;28;20062;-77
2024/03/14 09:15:25;;;;;;;5.25;2.60;;;;;;;13.24;75.92;99795.84;5086561;28;20032;-78
2024/03/14 09:17:51;;;;;;;5.85;2.80;;;;;;;13.08;73.75;99785.94;5086372;28;20374;-78
2024/03/14 09:20:19;;;;;;;5.03;2.70;;;;;;;13.19;73.88;99814.50;5086638;28;20492;-77
2024/03/14 09:22:45;;;;;;;5.97;2.90;;;;;;;12.95;73.16;99796.94;5068391;28;20028;-78
2024/03/14 09:25:14;;;;;;;5.68;3.10;;;;;;;13.14;74.07;99787.66;5085696;28;20032;-78
2024/03/14 09:27:42;;;;;;;5.40;2.75;;;;;;;13.47;73.22;99815.50;5067746;28;20498;-79
2024/03/14 09:30:11;;;;;;;4.80;2.80;;;;;;;13.25;72.12;99797.44;5086585;28;20056;-84
2024/03/14 09:32:39;;;;;;;5.75;3.25;;;;;;;13.27;70.92;99789.19;5067870;28;20059;-79
2024/03/14 09:35:07;;;;;;;;;;;;;;;13.55;72.67;99809.75;5071544;28;20457;-78
2024/03/14 09:37:32;;;;;;;2.70;1.70;;;;;;;13.35;72.53;99764.69;5090060;28;20347;-78
2024/03/14 09:39:58;;;;;;;3.45;1.60;;;;;;;13.57;72.55;99810.31;5089968;28;20029;-78
2024/03/14 09:42:25;;;;;;;3.25;1.88;;;;;;;13.37;72.64;99800.09;5090216;28;20115;-78
2024/03/14 09:44:52;;;;;;;3.90;2.10;;;;;;;13.50;73.24;99796.25;5090171;28;20093;-78
2024/03/14 09:47:37;;;;;;;3.75;1.80;;;;;;;13.64;71.55;99799.41;5071730;28;20723;-78
2024/03/14 09:50:05;;;;;;;3.03;1.80;;;;;;;13.89;72.44;99793.59;5090208;28;20020;-79
2024/03/14 09:52:35;;;;;;;2.95;1.70;;;;;;;13.98;70.53;99794.00;5090155;28;20027;-77
2024/03/14 09:55:09;;;;;;;6.07;3.40;;;;;;;14.05;71.53;99806.16;5089448;28;20035;-80
2024/03/14 09:57:36;;;;;;;3.50;2.00;;;;;;;13.99;71.96;99796.41;5089811;28;20032;-78
2024/03/14 10:00:02;;;;;;;5.22;2.70;;;;;;;14.09;73.40;99811.84;5089995;28;20024;-77
2024/03/14 10:02:30;;;;;;;3.58;1.63;;;;;;;13.92;67.88;99793.13;5070851;28;20028;-79
2024/03/14 10:04:56;;;;;;;3.45;1.35;;;;;;;14.07;68.13;99797.88;5089752;28;20513;-79
2024/03/14 10:07:21;;;;;;;1.70;1.17;;;;;;;14.11;68.46;99803.56;5089248;28;20032;-78
2024/03/14 10:09:48;;;;;;;5.70;1.88;;;;;;;13.97;70.39;99789.69;5089862;28;20023;-79
2024/03/14 10:12:14;;;;;;;3.53;1.38;;;;;;;13.83;66.47;99781.19;5089481;28;20032;-79
2024/03/14 10:14:41;;;;;;;2.03;1.20;;;;;;;14.03;68.96;99794.88;5089351;28;20111;-78
2024/03/14 10:17:10;;;;;;;2.63;1.10;;;;;;;14.11;68.04;99779.41;5070850;28;20035;-79
2024/03/14 10:19:36;;;;;;;1.52;1.00;;;;;;;14.25;67.09;99783.34;5089447;28;20028;-78
2024/03/14 10:22:04;;;;;;;2.50;1.20;;;;;;;14.22;68.29;99791.88;5089338;28;20024;-78
2024/03/14 10:24:36;;;;;;;2.20;1.37;;;;;;;14.01;68.48;99799.66;5073848;28;20028;-78
2024/03/14 10:27:04;;;;;;;4.07;1.95;;;;;;;14.00;67.88;99799.94;5088754;28;20290;-78
2024/03/14 10:29:33;;;;;;;2.30;1.55;;;;;;;13.91;65.59;99788.81;5089523;28;20048;-78
2024/03/14 10:31:58;;;;;;;;;;;;;;;14.33;66.18;99801.69;5089717;28;20107;-78
2024/03/14 10:34:24;;;;;;;2.97;1.33;;;;;;;14.36;65.55;99798.50;5088782;28;20023;-79
2024/03/14 10:36:54;;;;;;;1.85;1.30;;;;;;;14.47;64.03;99802.94;5070760;28;20036;-78
2024/03/14 10:39:22;;;;;;;1.67;1.35;;;;;;;14.41;63.91;99803.13;5088936;28;20020;-78
2024/03/14 10:41:48;;;;;;;2.22;1.58;;;;;;;14.34;65.66;99784.53;5070825;28;20032;-78
2024/03/14 10:44:18;;;;;;;2.95;1.80;;;;;;;14.46;62.48;99773.66;5088696;28;20024;-78
2024/03/14 10:46:50;;;;;;;2.90;1.85;;;;;;;14.55;64.23;99798.19;5087424;28;20032;-79
2024/03/14 10:49:20;;;;;;;3.20;2.10;;;;;;;14.40;63.64;99802.28;5075936;28;20709;-78
2024/03/14 10:51:51;;;;;;;3.28;2.00;;;;;;;14.20;62.56;99796.69;5078776;28;20378;-78
2024/03/14 10:54:23;;;;;;;3.80;2.13;;;;;;;14.28;62.38;99804.28;5078352;28;20032;-79
2024/03/14 10:56:49;;;;;;;3.67;1.90;;;;;;;14.09;62.94;99776.97;5088284;28;20063;-78
2024/03/14 10:59:19;;;;;;;3.33;2.20;;;;;;;14.13;63.60;99774.63;5088804;28;20028;-78
2024/03/14 11:01:54;;;;;;;4.00;2.50;;;;;;;14.42;64.10;99784.06;5088746;28;20032;-79
2024/03/14 11:04:23;;;;;;;3.15;2.25;;;;;;;14.43;63.05;99790.28;5089161;28;20013;-78
2024/03/14 11:06:50;;;;;;;3.88;2.55;;;;;;;14.77;65.12;99793.63;5089056;28;20035;-78
2024/03/14 11:09:28;;;;;;;3.47;2.50;;;;;;;14.84;62.99;99791.53;5089013;28;20531;-78
2024/03/14 11:11:55;;;;;;;;;;;;;;;14.88;61.46;99799.09;5090123;28;20020;-78
2024/03/14 11:14:30;;;;;;;4.50;1.75;;;;;;;14.74;61.51;99787.94;5071089;28;19908;-78
2024/03/14 11:16:57;;;;;;;3.08;2.20;;;;;;;14.81;62.26;99793.91;5069741;28;20028;-79
2024/03/14 11:19:25;;;;;;;2.38;1.77;;;;;;;14.77;60.12;99793.63;5089407;28;20016;-77
2024/03/14 11:21:52;;;;;;;3.33;2.20;;;;;;;14.93;62.07;99783.03;5089485;28;20072;-78
2024/03/14 11:24:23;;;;;;;2.92;2.00;;;;;;;14.75;61.86;99776.97;5070955;28;20024;-77
2024/03/14 11:26:52;;;;;;;4.50;2.22;;;;;;;14.64;62.25;99781.41;5088524;28;20475;-78
2024/03/14 11:29:20;;;;;;;2.33;1.70;;;;;;;14.68;62.59;99791.66;5088717;28;20072;-78